Time;durP1;ratioP1;P1;durP2;ratioP2;P2;SDS_P1;SDS_P2;PMS_P1;PMS_P2;Temp;Humidity;BMP_temperature;BMP_pressure;BME280_temperature;BME280_humidity;BME280_pressure;Samples;Min_cycle;Max_cycle;Signal;HPM_P1;HPM_P2
2023/01/25 00:00:37;;;;;;;33.05;18.88;;;1.40;99.90;;;;;;5071817;28;20047;-60
2023/01/25 00:03:03;;;;;;;32.38;19.02;;;;;;;;;;5071834;28;20041;-60
2023/01/25 00:05:29;;;;;;;34.55;19.38;;;;;;;;;;5071819;28;20052;-59
2023/01/25 00:07:55;;;;;;;36.97;19.98;;;;;;;;;;5071219;28;20040;-59
2023/01/25 00:10:21;;;;;;;33.70;18.92;;;;;;;;;;5071263;28;20050;-60
2023/01/25 00:12:47;;;;;;;31.52;17.92;;;;;;;;;;5053587;28;20913;-60
2023/01/25 00:15:13;;;;;;;33.13;18.67;;;;;;;;;;5071749;28;20090;-59
2023/01/25 00:17:40;;;;;;;32.65;17.65;;;;;;;;;;5070941;28;20036;-60
2023/01/25 00:20:06;;;;;;;34.88;18.52;;;;;;;;;;5071505;28;20037;-59
2023/01/25 00:22:32;;;;;;;34.03;18.33;;;;;;;;;;5070978;28;20086;-59
2023/01/25 00:24:58;;;;;;;33.75;18.27;;;;;;;;;;5071434;28;20036;-60
2023/01/25 00:27:23;;;;;;;34.25;19.17;;;1.30;99.90;;;;;;5048046;28;20397;-60
2023/01/25 00:29:49;;;;;;;33.10;18.27;;;;;;;;;;5071360;28;20029;-60
2023/01/25 00:32:15;;;;;;;34.20;17.40;;;1.10;99.90;;;;;;5070852;28;20048;-60
2023/01/25 00:34:45;;;;;;;34.85;17.30;;;;;;;;;;5069412;28;20524;-59
2023/01/25 00:37:13;;;;;;;33.50;17.90;;;;;;;;;;5052591;28;20039;-60
2023/01/25 00:39:39;;;;;;;33.00;17.90;;;1.10;99.90;;;;;;5070305;28;20048;-60
2023/01/25 00:42:07;;;;;;;32.42;17.45;;;0.90;99.90;;;;;;5067397;28;20033;-60
2023/01/25 00:44:33;;;;;;;34.08;18.02;;;1.00;99.90;;;;;;5070873;28;20043;-60
2023/01/25 00:46:58;;;;;;;31.45;17.10;;;0.90;99.90;;;;;;5070672;28;20024;-60
2023/01/25 00:49:26;;;;;;;29.80;16.02;;;;;;;;;;5070561;28;20036;-59
2023/01/25 00:51:53;;;;;;;32.42;16.25;;;0.40;99.90;;;;;;5070681;28;20095;-60
2023/01/25 00:54:19;;;;;;;32.50;17.40;;;;;;;;;;5071014;28;20075;-60
2023/01/25 00:56:45;;;;;;;32.88;16.80;;;;;;;;;;5069656;28;20047;-60
2023/01/25 00:59:12;;;;;;;30.75;16.30;;;;;;;;;;5070456;28;20045;-60
2023/01/25 01:01:40;;;;;;;35.35;18.83;;;1.20;99.90;;;;;;5070470;28;20048;-60
2023/01/25 01:04:06;;;;;;;33.95;18.00;;;0.90;99.90;;;;;;5070634;28;20032;-60
2023/01/25 01:06:34;;;;;;;31.05;18.85;;;;;;;;;;5070365;28;20090;-59
2023/01/25 01:09:00;;;;;;;33.67;19.17;;;;;;;;;;5070225;28;20036;-60
2023/01/25 01:11:26;;;;;;;34.72;20.60;;;1.00;99.90;;;;;;5070556;28;20047;-60
2023/01/25 01:13:52;;;;;;;36.25;19.80;;;;;;;;;;5070527;28;20029;-60
2023/01/25 01:16:18;;;;;;;35.20;18.45;;;;;;;;;;5070327;28;20620;-60
2023/01/25 01:18:45;;;;;;;32.78;17.35;;;;;;;;;;5069873;28;20044;-60
2023/01/25 01:21:12;;;;;;;31.63;18.33;;;1.20;99.90;;;;;;5070115;28;20128;-58
2023/01/25 01:23:38;;;;;;;38.08;19.95;;;;;;;;;;5070480;28;20068;-60
2023/01/25 01:26:07;;;;;;;32.55;17.20;;;;;;;;;;5052220;28;20040;-60
2023/01/25 01:28:34;;;;;;;38.72;19.67;;;;;;;;;;5051940;28;20040;-60
2023/01/25 01:31:01;;;;;;;36.90;17.63;;;;;;;;;;5070226;28;20145;-59
2023/01/25 01:33:27;;;;;;;35.38;20.20;;;;;;;;;;5070109;28;20036;-60
2023/01/25 01:35:52;;;;;;;42.63;20.38;;;1.00;99.90;;;;;;5070171;28;20040;-60
2023/01/25 01:38:18;;;;;;;39.17;19.42;;;0.80;99.90;;;;;;5069949;28;20158;-60
2023/01/25 01:40:48;;;;;;;41.97;21.02;;;;;;;;;;5069859;28;20116;-60
2023/01/25 01:43:22;;;;;;;35.55;19.95;;;1.40;99.90;;;;;;5070216;28;20119;-60
2023/01/25 01:45:48;;;;;;;38.35;19.77;;;;;;;;;;5070143;28;20044;-60
2023/01/25 01:48:34;;;;;;;44.45;21.42;;;;;;;;;;5069324;28;20056;-60
2023/01/25 01:51:10;;;;;;;40.33;21.42;;;;;;;;;;5020834;28;20045;-60
2023/01/25 01:53:36;;;;;;;40.63;21.73;;;0.80;99.90;;;;;;5064350;28;20097;-59
2023/01/25 01:56:07;;;;;;;39.40;21.70;;;0.70;99.90;;;;;;5051959;28;20045;-60
2023/01/25 01:58:33;;;;;;;43.22;22.63;;;;;;;;;;5069217;28;20524;-60
2023/01/25 02:00:59;;;;;;;39.50;20.02;;;;;;;;;;5070125;28;20117;-59
2023/01/25 02:03:26;;;;;;;43.63;22.45;;;;;;;;;;5069688;28;20544;-59
2023/01/25 02:05:56;;;;;;;42.65;21.55;;;;;;;;;;5070112;28;20040;-60
2023/01/25 02:08:23;;;;;;;40.78;21.35;;;;;;;;;;5069299;28;20040;-59
2023/01/25 02:10:49;;;;;;;42.10;22.10;;;;;;;;;;5069717;28;20032;-60
2023/01/25 02:13:16;;;;;;;47.95;25.05;;;;;;;;;;5052057;28;20386;-60
2023/01/25 02:15:44;;;;;;;43.00;22.42;;;;;;;;;;5069887;28;20127;-59
2023/01/25 02:18:10;;;;;;;42.25;22.30;;;;;;;;;;5067459;28;20052;-58
2023/01/25 02:20:36;;;;;;;45.00;25.65;;;;;;;;;;5069747;28;20128;-60
2023/01/25 02:23:05;;;;;;;46.92;24.42;;;;;;;;;;5066063;28;20037;-60
2023/01/25 02:25:31;;;;;;;50.75;26.77;;;;;;;;;;5066578;28;20036;-59
2023/01/25 02:28:01;;;;;;;45.60;24.75;;;;;;;;;;5064911;28;20044;-60
2023/01/25 02:30:28;;;;;;;46.83;23.90;;;;;;;;;;5068250;28;20033;-59
2023/01/25 02:32:54;;;;;;;49.58;26.10;;;;;;;;;;5067646;28;20043;-60
2023/01/25 02:35:21;;;;;;;51.20;25.70;;;;;;;;;;5051839;28;20037;-59
2023/01/25 02:37:47;;;;;;;47.35;24.88;;;;;;;;;;5069312;28;20151;-60
2023/01/25 02:40:13;;;;;;;48.30;24.77;;;0.70;99.90;;;;;;5069365;28;20119;-60
2023/01/25 02:42:41;;;;;;;49.55;26.33;;;;;;;;;;5069590;28;20628;-60
2023/01/25 02:45:09;;;;;;;51.80;25.92;;;;;;;;;;5063325;28;20516;-59
2023/01/25 02:47:34;;;;;;;57.13;29.05;;;0.60;99.90;;;;;;5069266;28;20044;-60
2023/01/25 02:50:01;;;;;;;52.20;27.30;;;;;;;;;;5069570;28;20028;-60
2023/01/25 02:52:27;;;;;;;55.22;29.65;;;;;;;;;;5046426;28;20048;-59
2023/01/25 02:54:53;;;;;;;51.92;27.50;;;;;;;;;;5051557;28;20068;-60
2023/01/25 02:57:19;;;;;;;54.88;26.92;;;;;;;;;;5069400;28;20040;-61
2023/01/25 02:59:44;;;;;;;55.03;27.58;;;0.70;99.90;;;;;;5069240;28;20044;-60
2023/01/25 03:02:10;;;;;;;53.33;26.55;;;0.90;99.90;;;;;;5059692;28;20501;-60
2023/01/25 03:04:36;;;;;;;61.58;31.30;;;;;;;;;;5068331;28;20075;-59
2023/01/25 03:07:03;;;;;;;55.03;26.90;;;;;;;;;;5054064;28;20067;-58
2023/01/25 03:09:28;;;;;;;60.00;28.05;;;0.70;99.90;;;;;;5072562;28;20037;-60
2023/01/25 03:11:54;;;;;;;57.35;26.73;;;;;;;;;;5072921;28;20523;-58
2023/01/25 03:14:20;;;;;;;55.20;25.38;;;;;;;;;;5073114;28;20045;-59
2023/01/25 03:16:46;;;;;;;57.10;27.20;;;;;;;;;;5072474;28;20467;-60
2023/01/25 03:19:12;;;;;;;49.53;24.02;;;;;;;;;;5072668;28;20041;-58
2023/01/25 03:21:40;;;;;;;41.58;20.35;;;;;;;;;;5072443;28;20051;-59
2023/01/25 03:24:06;;;;;;;51.22;24.15;;;1.00;1.00;;;;;;5072452;28;20040;-60
2023/01/25 03:27:09;;;;;;;52.75;24.42;;;;;;;;;;5072448;28;20397;-60
2023/01/25 03:29:17;;;;;;;53.83;26.25;;;0.80;99.90;;;;;;5072246;28;20409;-59
2023/01/25 03:31:43;;;;;;;47.28;22.85;;;;;;;;;;5069620;28;20029;-60
2023/01/25 03:34:09;;;;;;;48.15;22.90;;;;;;;;;;5051747;28;20036;-59
2023/01/25 03:36:35;;;;;;;52.50;25.85;;;;;;;;;;5054093;28;20048;-59
2023/01/25 03:39:01;;;;;;;56.67;26.48;;;0.50;99.90;;;;;;5070488;28;20037;-60
2023/01/25 03:41:27;;;;;;;56.90;27.15;;;;;;;;;;5054263;28;20033;-60
2023/01/25 03:43:52;;;;;;;52.88;25.58;;;0.40;99.90;;;;;;5072596;28;20036;-59
2023/01/25 03:46:18;;;;;;;57.80;27.80;;;;;;;;;;5054429;28;20068;-60
2023/01/25 03:48:45;;;;;;;51.40;25.67;;;;;;;;;;5072070;28;20567;-60
2023/01/25 03:51:11;;;;;;;52.15;27.80;;;0.50;1.00;;;;;;5072542;28;20045;-60
2023/01/25 03:53:37;;;;;;;45.65;23.48;;;;;;;;;;5072955;28;20032;-60
2023/01/25 03:56:10;;;;;;;55.22;26.98;;;0.30;99.90;;;;;;5072598;28;20059;-60
2023/01/25 03:58:37;;;;;;;59.72;26.95;;;;;;;;;;5071930;28;20436;-60
2023/01/25 04:01:05;;;;;;;50.22;24.63;;;1.10;99.90;;;;;;5073256;28;20044;-58
2023/01/25 04:03:31;;;;;;;50.80;25.75;;;0.60;99.90;;;;;;5053028;28;20106;-60
2023/01/25 04:05:58;;;;;;;58.15;28.73;;;;;;;;;;5072802;28;20036;-60
2023/01/25 04:08:24;;;;;;;52.70;26.67;;;;;;;;;;5071761;28;20033;-59
2023/01/25 04:10:54;;;;;;;60.60;29.40;;;;;;;;;;5072177;28;20180;-60
2023/01/25 04:13:21;;;;;;;59.00;28.80;;;;;;;;;;5072020;28;20059;-60
2023/01/25 04:15:47;;;;;;;55.47;25.73;;;;;;;;;;5070697;28;20111;-59
2023/01/25 04:18:14;;;;;;;48.97;23.65;;;;;;;;;;5071046;28;20056;-60
2023/01/25 04:20:40;;;;;;;55.95;28.35;;;0.60;1.00;;;;;;5071722;28;20037;-61
2023/01/25 04:23:06;;;;;;;60.75;29.80;;;0.60;99.90;;;;;;5071515;28;20497;-61
2023/01/25 04:25:33;;;;;;;59.63;27.50;;;;;;;;;;5071442;28;20489;-59
2023/01/25 04:27:59;;;;;;;61.03;27.42;;;;;;;;;;5070399;28;20401;-60
2023/01/25 04:30:25;;;;;;;59.00;27.30;;;;;;;;;;5071494;28;20042;-60
2023/01/25 04:32:51;;;;;;;55.20;25.65;;;0.40;1.00;;;;;;5048940;28;20124;-60
2023/01/25 04:35:19;;;;;;;59.38;30.48;;;;;;;;;;5066477;28;20128;-60
2023/01/25 04:37:52;;;;;;;58.67;29.73;;;;;;;;;;5071003;28;20460;-58
2023/01/25 04:40:18;;;;;;;64.10;30.48;;;;;;;;;;5066672;28;20051;-60
2023/01/25 04:42:43;;;;;;;61.05;28.20;;;0.30;1.00;;;;;;5070891;28;20040;-59
2023/01/25 04:45:10;;;;;;;59.70;27.67;;;;;;;;;;5070938;28;20036;-59
2023/01/25 04:47:36;;;;;;;56.55;28.92;;;;;;;;;;5070844;28;20033;-59
2023/01/25 04:50:02;;;;;;;56.10;27.25;;;;;;;;;;5070996;28;20407;-60
2023/01/25 04:52:28;;;;;;;54.35;26.58;;;;;;;;;;5052953;28;20036;-59
2023/01/25 04:54:54;;;;;;;48.20;23.83;;;;;;;;;;5071012;28;20029;-59
2023/01/25 04:57:20;;;;;;;51.80;24.95;;;;;;;;;;5070517;28;20401;-59
2023/01/25 04:59:46;;;;;;;42.30;19.73;;;;;;;;;;5070371;28;20036;-60
2023/01/25 05:02:12;;;;;;;52.33;24.42;;;;;;;;;;5052386;28;20044;-59
2023/01/25 05:04:38;;;;;;;47.05;21.98;;;;;;;;;;5064348;28;20040;-59
2023/01/25 05:07:04;;;;;;;46.30;22.30;;;;;;;;;;5070264;28;20382;-59
2023/01/25 05:09:30;;;;;;;48.20;23.65;;;;;;;;;;5070571;28;20044;-59
2023/01/25 05:11:56;;;;;;;50.85;25.13;;;;;;;;;;5070343;28;20040;-59
2023/01/25 05:14:22;;;;;;;53.95;24.60;;;;;;;;;;5071016;28;20072;-59
2023/01/25 05:16:47;;;;;;;52.97;26.10;;;0.30;99.90;;;;;;5052084;28;20076;-60
2023/01/25 05:19:13;;;;;;;51.63;25.63;;;;;;;;;;5070351;28;20135;-59
2023/01/25 05:21:57;;;;;;;49.80;23.65;;;;;;;;;;5052376;28;20049;-58
2023/01/25 05:24:24;;;;;;;47.38;25.00;;;0.20;99.90;;;;;;5070553;28;20504;-59
2023/01/25 05:26:59;;;;;;;54.13;27.13;;;;;;;;;;5066053;28;20036;-58
2023/01/25 05:29:28;;;;;;;53.38;26.60;;;;;;;;;;5070209;28;20040;-59
2023/01/25 05:31:54;;;;;;;52.53;26.45;;;;;;;;;;5065749;28;20036;-57
2023/01/25 05:34:20;;;;;;;53.17;24.48;;;;;;;;;;5052383;28;20048;-58
2023/01/25 05:36:46;;;;;;;55.88;27.88;;;;;;;;;;5052146;28;20097;-60
2023/01/25 05:39:12;;;;;;;56.67;28.88;;;;;;;;;;5068518;28;20473;-58
2023/01/25 05:41:38;;;;;;;52.05;27.45;;;;;;;;;;5034790;28;20481;-59
2023/01/25 05:44:04;;;;;;;62.28;29.52;;;;;;;;;;5050723;28;20082;-59
2023/01/25 05:46:31;;;;;;;55.95;29.17;;;;;;;;;;5054794;28;20044;-60
2023/01/25 05:48:57;;;;;;;54.38;26.92;;;;;;;;;;5052783;28;20409;-59
2023/01/25 05:51:23;;;;;;;55.50;27.52;;;;;;;;;;5053382;28;20712;-59
2023/01/25 05:53:49;;;;;;;56.00;27.85;;;;;;;;;;5062491;28;20032;-58
2023/01/25 05:56:15;;;;;;;52.40;27.98;;;0.30;1.00;;;;;;5060496;28;20046;-59
2023/01/25 05:58:41;;;;;;;54.22;27.13;;;;;;;;;;5057494;28;20153;-59
2023/01/25 06:01:07;;;;;;;54.17;26.02;;;;;;;;;;5057039;28;20448;-59
2023/01/25 06:03:33;;;;;;;52.75;25.75;;;0.50;1.00;;;;;;5058508;28;20029;-59
2023/01/25 06:06:01;;;;;;;51.30;26.58;;;0.20;1.00;;;;;;5055326;28;20032;-60
2023/01/25 06:08:28;;;;;;;50.38;24.77;;;;;;;;;;5061373;28;20037;-59
2023/01/25 06:10:54;;;;;;;53.20;27.48;;;;;;;;;;5061699;28;20500;-60
2023/01/25 06:13:21;;;;;;;55.35;27.02;;;0.20;1.00;;;;;;5039595;28;20044;-60
2023/01/25 06:15:56;;;;;;;53.38;28.42;;;;;;;;;;5069391;28;20059;-60
2023/01/25 06:18:23;;;;;;;52.33;26.88;;;;;;;;;;5068252;28;20035;-59
2023/01/25 06:20:49;;;;;;;52.55;26.15;;;;;;;;;;5069703;28;20283;-60
2023/01/25 06:23:16;;;;;;;46.70;24.38;;;;;;;;;;5069310;28;20121;-58
2023/01/25 06:25:42;;;;;;;53.53;25.88;;;;;;;;;;5069825;28;20057;-60
2023/01/25 06:28:08;;;;;;;47.00;25.63;;;;;;;;;;5069223;28;20041;-60
2023/01/25 06:30:34;;;;;;;48.08;23.65;;;;;;;;;;5069697;28;20048;-60
2023/01/25 06:33:00;;;;;;;42.33;23.38;;;;;;;;;;5069503;28;20037;-59
2023/01/25 06:35:27;;;;;;;48.50;23.27;;;;;;;;;;5069432;28;20083;-59
2023/01/25 06:37:57;;;;;;;46.03;23.63;;;;;;;;;;5069494;28;20450;-59
2023/01/25 06:40:23;;;;;;;47.53;23.70;;;;;;;;;;5073420;28;20048;-59
2023/01/25 06:42:49;;;;;;;47.20;25.00;;;;;;;;;;5073174;28;20039;-60
2023/01/25 06:45:15;;;;;;;51.65;25.95;;;;;;;;;;5055535;28;20131;-60
2023/01/25 06:47:41;;;;;;;50.17;26.42;;;;;;;;;;5065485;28;20101;-60
2023/01/25 06:50:08;;;;;;;54.10;25.67;;;;;;;;;;5073115;28;20104;-60
2023/01/25 06:52:35;;;;;;;49.88;25.00;;;;;;;;;;5073113;28;20075;-59
2023/01/25 06:55:06;;;;;;;50.22;23.58;;;0.80;1.00;;;;;;5073472;28;20045;-60
2023/01/25 06:57:33;;;;;;;55.38;27.58;;;0.70;1.00;;;;;;5072720;28;20455;-60
2023/01/25 06:59:59;;;;;;;48.28;24.02;;;0.60;1.00;;;;;;5072927;28;20032;-60
2023/01/25 07:02:25;;;;;;;51.15;25.23;;;0.80;1.00;;;;;;5072803;28;20078;-59
2023/01/25 07:04:51;;;;;;;56.58;28.75;;;0.80;1.00;;;;;;5072800;28;20064;-59
2023/01/25 07:07:17;;;;;;;51.75;26.65;;;;;;;;;;5072837;28;20115;-58
2023/01/25 07:09:43;;;;;;;55.92;26.00;;;;;;;;;;5072360;28;20329;-60
2023/01/25 07:12:09;;;;;;;48.40;23.70;;;;;;;;;;5072892;28;20033;-60
2023/01/25 07:14:35;;;;;;;52.47;26.17;;;;;;;;;;5072619;28;20052;-59
2023/01/25 07:17:01;;;;;;;52.42;26.00;;;;;;;;;;5072104;28;20076;-60
2023/01/25 07:19:27;;;;;;;54.00;27.35;;;;;;;;;;5072573;28;20064;-60
2023/01/25 07:21:53;;;;;;;52.75;26.50;;;;;;;;;;5072581;28;20389;-60
2023/01/25 07:24:19;;;;;;;55.80;26.05;;;0.60;1.00;;;;;;5072564;28;20524;-60
2023/01/25 07:26:46;;;;;;;52.97;26.02;;;0.70;1.00;;;;;;5072421;28;20056;-60
2023/01/25 07:29:13;;;;;;;53.40;27.13;;;;;;;;;;5054190;28;20373;-60
2023/01/25 07:31:40;;;;;;;55.60;27.40;;;0.70;1.00;;;;;;5054503;28;20036;-59
2023/01/25 07:34:08;;;;;;;52.85;24.85;;;;;;;;;;5072196;28;20037;-60
2023/01/25 07:36:34;;;;;;;38.72;18.90;;;;;;;;;;5054330;28;20635;-59
2023/01/25 07:39:00;;;;;;;54.13;25.45;;;;;;;;;;5071948;28;20035;-60
2023/01/25 07:41:27;;;;;;;45.13;22.00;;;;;;;;;;5072107;28;20063;-60
2023/01/25 07:43:53;;;;;;;51.72;26.33;;;;;;;;;;5072089;28;20032;-60
2023/01/25 07:46:20;;;;;;;49.47;24.88;;;;;;;;;;5071796;28;20040;-60
2023/01/25 07:48:50;;;;;;;56.30;27.00;;;;;;;;;;5071701;28;20044;-59
2023/01/25 07:51:28;;;;;;;54.08;26.27;;;1.30;1.00;;;;;;5072122;28;20033;-60
2023/01/25 07:53:56;;;;;;;53.22;25.35;;;;;;;;;;5062663;28;20048;-60
2023/01/25 07:56:23;;;;;;;54.70;26.58;;;;;;;;;;5069786;28;20036;-60
2023/01/25 07:58:49;;;;;;;58.17;26.52;;;;;;;;;;5068898;28;20036;-60
2023/01/25 08:01:17;;;;;;;55.63;26.63;;;;;;;;;;5069682;28;20173;-59
2023/01/25 08:03:43;;;;;;;51.17;24.83;;;;;;;;;;5070877;28;20032;-58
2023/01/25 08:06:09;;;;;;;48.67;24.23;;;;;;;;;;5036310;28;20052;-60
2023/01/25 08:08:45;;;;;;;55.40;26.30;;;;;;;;;;5066177;28;20045;-60
2023/01/25 08:11:14;;;;;;;52.97;23.95;;;;;;;;;;5071307;28;20036;-60
2023/01/25 08:13:40;;;;;;;54.03;23.92;;;1.50;1.00;;;;;;5071107;28;20173;-59
2023/01/25 08:16:06;;;;;;;55.40;24.05;;;0.80;1.00;;;;;;5071563;28;20028;-60
2023/01/25 08:18:32;;;;;;;51.97;24.70;;;1.30;1.00;;;;;;5070854;28;20029;-59
2023/01/25 08:20:59;;;;;;;52.70;24.60;;;0.70;1.00;;;;;;5071563;28;20037;-59
2023/01/25 08:23:26;;;;;;;50.85;23.80;;;0.70;1.00;;;;;;5071181;28;20037;-59
2023/01/25 08:25:52;;;;;;;49.08;23.75;;;;;;;;;;5071299;28;20070;-60
2023/01/25 08:28:17;;;;;;;52.70;23.08;;;0.90;1.00;;;;;;5070805;28;20044;-60
2023/01/25 08:30:43;;;;;;;54.17;24.45;;;0.80;1.00;;;;;;5071198;28;20043;-59
2023/01/25 08:33:09;;;;;;;55.83;27.73;;;;;;;;;;5071377;28;20076;-59
2023/01/25 08:35:36;;;;;;;54.13;26.45;;;;;;;;;;5071210;28;20040;-60
2023/01/25 08:38:02;;;;;;;59.20;26.08;;;;;;;;;;5070709;28;20047;-60
2023/01/25 08:40:28;;;;;;;60.85;27.30;;;0.80;1.00;;;;;;5070879;28;20040;-60
2023/01/25 08:42:54;;;;;;;58.35;25.08;;;;;;;;;;5070843;28;20046;-59
2023/01/25 08:45:20;;;;;;;51.78;23.63;;;;;;;;;;5060168;28;20391;-60
2023/01/25 08:47:46;;;;;;;55.33;24.05;;;;;;;;;;5069208;28;20036;-59
2023/01/25 08:50:13;;;;;;;55.22;23.92;;;;;;;;;;5069909;28;20051;-60
2023/01/25 08:52:39;;;;;;;53.92;22.50;;;;;;;;;;5070953;28;20458;-59
2023/01/25 08:55:05;;;;;;;52.42;24.30;;;;;;;;;;5070946;28;20036;-60
2023/01/25 08:57:31;;;;;;;51.38;22.65;;;;;;;;;;5070291;28;20199;-59
2023/01/25 08:59:57;;;;;;;52.30;20.90;;;;;;;;;;5070622;28;20401;-60
2023/01/25 09:02:23;;;;;;;56.88;22.27;;;;;;;;;;5070024;28;20041;-60
2023/01/25 09:04:49;;;;;;;49.25;22.23;;;;;;;;;;5052612;28;20532;-60
2023/01/25 09:07:15;;;;;;;42.65;18.88;;;;;;;;;;5052618;28;20055;-59
2023/01/25 09:09:41;;;;;;;51.78;22.58;;;0.80;1.00;;;;;;5070499;28;20029;-59
2023/01/25 09:12:08;;;;;;;51.45;20.98;;;;;;;;;;5071060;28;20131;-59
2023/01/25 09:14:36;;;;;;;47.08;22.65;;;;;;;;;;5070503;28;20414;-59
2023/01/25 09:17:02;;;;;;;56.10;22.63;;;;;;;;;;5070160;28;20063;-60
2023/01/25 09:19:28;;;;;;;53.25;22.05;;;;;;;;;;5052523;28;20048;-59
2023/01/25 09:21:54;;;;;;;56.55;24.75;;;;;;;;;;5070338;28;20040;-60
2023/01/25 09:24:20;;;;;;;60.72;24.80;;;1.00;1.00;;;;;;5070553;28;20040;-60
2023/01/25 09:26:45;;;;;;;60.38;24.80;;;0.80;1.00;;;;;;5070095;28;20448;-58
2023/01/25 09:29:11;;;;;;;62.72;25.70;;;;;;;;;;5069742;28;20032;-58
2023/01/25 09:31:44;;;;;;;69.22;28.38;;;0.70;1.00;;;;;;5070033;28;20036;-59
2023/01/25 09:34:11;;;;;;;64.82;26.77;;;;;;;;;;5070177;28;20048;-59
2023/01/25 09:36:37;;;;;;;66.45;27.42;;;1.00;1.00;;;;;;5052090;28;20040;-60
2023/01/25 09:39:03;;;;;;;69.15;25.90;;;;;;;;;;5051690;28;20032;-61
2023/01/25 09:41:35;;;;;;;77.20;26.77;;;;;;;;;;5052353;28;20049;-60
2023/01/25 09:44:22;;;;;;;66.07;27.65;;;1.50;1.00;;;;;;5070574;28;20440;-61
2023/01/25 09:46:51;;;;;;;63.30;24.48;;;;;;;;;;5069799;28;20052;-62
2023/01/25 09:49:17;;;;;;;70.55;25.85;;;;;;;;;;5070231;28;20115;-60
2023/01/25 09:52:01;;;;;;;71.78;27.52;;;1.00;1.00;;;;;;5052470;28;20473;-60
2023/01/25 09:54:28;;;;;;;68.38;28.10;;;;;;;;;;5070058;28;20123;-60
2023/01/25 09:56:55;;;;;;;73.03;30.85;;;;;;;;;;5069569;28;20128;-60
2023/01/25 09:59:25;;;;;;;77.18;27.45;;;;;;;;;;5052645;28;20040;-60
2023/01/25 10:02:00;;;;;;;81.07;29.60;;;;;;;;;;5069967;28;20085;-61
2023/01/25 10:04:28;;;;;;;83.88;27.27;;;;;;;;;;5070046;28;20044;-59
2023/01/25 10:07:01;;;;;;;79.35;29.55;;;;;;;;;;5061956;28;20040;-59
2023/01/25 10:09:31;;;;;;;85.60;27.17;;;;;;;;;;5069608;28;20091;-60
2023/01/25 10:12:18;;;;;;;76.80;26.70;;;;;;;;;;5070132;28;20032;-60
2023/01/25 10:14:43;;;;;;;74.15;29.20;;;1.30;1.00;;;;;;5073516;28;20066;-60
2023/01/25 10:17:31;;;;;;;80.95;28.17;;;1.70;1.00;;;;;;5073541;28;20525;-61
2023/01/25 10:20:23;;;;;;;82.93;29.85;;;;;;;;;;5073629;28;20255;-60
2023/01/25 10:23:07;;;;;;;74.35;28.40;;;;;;;;;;5073888;28;20036;-60
2023/01/25 10:25:44;;;;;;;78.87;29.57;;;;;;;;;;5073634;28;20040;-61
2023/01/25 10:28:38;;;;;;;86.50;30.05;;;1.50;1.00;;;;;;5072879;28;20389;-61
2023/01/25 10:31:20;;;;;;;66.45;28.30;;;;;;;;;;5073793;28;20028;-60
2023/01/25 10:33:47;;;;;;;73.00;25.75;;;;;;;;;;5073715;28;20045;-60
2023/01/25 10:36:20;;;;;;;85.32;31.67;;;1.20;1.00;;;;;;5055622;28;20117;-60
2023/01/25 10:38:56;;;;;;;78.55;30.45;;;;;;;;;;5073077;28;20419;-61
2023/01/25 10:41:27;;;;;;;89.35;31.65;;;;;;;;;;5073475;28;20048;-60
2023/01/25 10:46:40;;;;;;;80.35;29.77;;;;;;;;;;5071373;28;20044;-61
2023/01/25 10:49:20;;;;;;;82.93;33.45;;;;;;;;;;5073081;28;20040;-60
2023/01/25 10:51:46;;;;;;;72.55;28.33;;;;;;;;;;5072629;28;20447;-61
2023/01/25 10:54:14;;;;;;;81.60;29.40;;;;;;;;;;5073376;28;20048;-59
2023/01/25 10:56:42;;;;;;;89.20;30.92;;;1.30;1.00;;;;;;5072891;28;20036;-61
2023/01/25 10:59:17;;;;;;;73.53;29.55;;;1.30;1.00;;;;;;5072561;28;20044;-61
2023/01/25 11:01:43;;;;;;;82.18;30.83;;;;;;;;;;5073073;28;20476;-63
2023/01/25 11:04:34;;;;;;;88.53;32.58;;;1.50;1.00;;;;;;5073004;28;20489;-61
2023/01/25 11:07:01;;;;;;;87.93;31.80;;;;;;;;;;5065529;28;20327;-60
2023/01/25 11:09:35;;;;;;;91.18;32.60;;;;;;;;;;5072917;28;20067;-60
2023/01/25 11:12:16;;;;;;;100.15;33.63;;;1.30;1.00;;;;;;5065867;28;20032;-60
2023/01/25 11:14:42;;;;;;;96.05;33.33;;;1.50;1.00;;;;;;5073018;28;20044;-61
2023/01/25 11:17:20;;;;;;;91.90;35.22;;;;;;;;;;5072501;28;20033;-61
2023/01/25 11:19:46;;;;;;;88.70;33.58;;;1.60;1.00;;;;;;5072491;28;20063;-61
2023/01/25 11:22:18;;;;;;;96.13;35.88;;;;;;;;;;5072489;28;20036;-60
2023/01/25 11:24:44;;;;;;;95.65;37.75;;;;;;;;;;5072013;28;20044;-61
2023/01/25 11:27:20;;;;;;;100.70;37.85;;;;;;;;;;5053709;28;20048;-61
2023/01/25 11:30:08;;;;;;;86.20;33.05;;;1.80;1.00;;;;;;5072344;28;20041;-60
2023/01/25 11:32:34;;;;;;;97.25;34.65;;;;;;;;;;5072138;28;20041;-60
2023/01/25 11:35:00;;;;;;;86.22;34.22;;;;;;;;;;5054637;28;20043;-59
2023/01/25 11:37:26;;;;;;;87.47;35.83;;;1.80;1.00;;;;;;5071928;28;20044;-61
2023/01/25 11:39:54;;;;;;;89.25;35.20;;;;;;;;;;5072748;28;20362;-61
2023/01/25 11:42:41;;;;;;;88.10;34.42;;;;;;;;;;5072084;28;20545;-61
2023/01/25 11:45:26;;;;;;;91.63;33.30;;;2.00;1.00;;;;;;5072211;28;20115;-61
2023/01/25 11:47:55;;;;;;;86.72;33.13;;;;;;;;;;5071917;28;20037;-60
2023/01/25 11:50:35;;;;;;;90.05;35.90;;;2.30;1.00;;;;;;5072238;28;20042;-60
2023/01/25 11:53:01;;;;;;;93.20;34.28;;;;;;;;;;5072541;28;20036;-61
2023/01/25 11:56:00;;;;;;;85.15;33.60;;;1.50;1.00;;;;;;5071878;28;20411;-60
2023/01/25 11:58:37;;;;;;;80.43;33.13;;;1.70;1.00;;;;;;5068095;28;20119;-60
2023/01/25 12:01:12;;;;;;;79.53;31.60;;;;;;;;;;5072045;28;20115;-61
2023/01/25 12:03:51;;;;;;;71.32;31.17;;;;;;;;;;5069931;28;20113;-60
2023/01/25 12:06:27;;;;;;;84.68;30.73;;;2.40;1.00;;;;;;5071571;28;20037;-61
2023/01/25 12:09:08;;;;;;;77.07;30.35;;;;;;;;;;5063454;28;20510;-61
2023/01/25 12:11:37;;;;;;;85.07;35.65;;;;;;;;;;5071531;28;20033;-61
2023/01/25 12:14:09;;;;;;;84.45;34.50;;;;;;;;;;5071686;28;20396;-60
2023/01/25 12:16:47;;;;;;;78.60;32.85;;;;;;;;;;5071365;28;20044;-60
2023/01/25 12:19:43;;;;;;;71.57;27.95;;;2.60;1.00;;;;;;5071473;28;20071;-61
2023/01/25 12:22:17;;;;;;;84.43;30.85;;;;;;;;;;5071519;28;20062;-60
2023/01/25 12:25:02;;;;;;;71.05;31.52;;;;;;;;;;5071365;28;20063;-60
2023/01/25 12:27:55;;;;;;;70.78;32.67;;;1.80;1.00;;;;;;5068057;28;20048;-59
2023/01/25 12:30:32;;;;;;;69.28;29.77;;;2.60;1.00;;;;;;5071168;28;20036;-59
2023/01/25 12:33:01;;;;;;;73.43;30.75;;;;;;;;;;5063952;28;20041;-60
2023/01/25 12:35:38;;;;;;;80.03;32.53;;;2.50;1.00;;;;;;5070690;28;20109;-60
2023/01/25 12:38:08;;;;;;;72.47;28.85;;;;;;;;;;5064002;28;20033;-61
2023/01/25 12:40:44;;;;;;;76.53;31.45;;;;;;;;;;5052873;28;20047;-59
2023/01/25 12:43:20;;;;;;;72.75;29.65;;;2.60;1.00;;;;;;5065184;28;20523;-60
2023/01/25 12:45:48;;;;;;;72.22;30.17;;;;;;;;;;5070820;28;20060;-60
2023/01/25 12:48:18;;;;;;;71.05;29.70;;;;;;;;;;5070301;28;20040;-60
2023/01/25 12:50:55;;;;;;;66.30;26.73;;;2.60;1.00;;;;;;5070901;28;20468;-60
2023/01/25 12:53:23;;;;;;;74.32;30.10;;;;;;;;;;5066725;28;20094;-59
2023/01/25 12:55:51;;;;;;;67.55;27.60;;;;;;;;;;5070783;28;20032;-60
2023/01/25 12:58:29;;;;;;;69.20;27.38;;;;;;;;;;5123820;27;20456;-60
2023/01/25 13:01:11;;;;;;;59.15;29.77;;;;;;;;;;5108871;28;20119;-60
2023/01/25 13:04:15;;;;;;;60.95;29.10;;;2.80;1.00;;;;;;5124004;28;20057;-61
2023/01/25 13:07:03;;;;;;;56.00;26.05;;;;;;;;;;5096555;28;20039;-61
2023/01/25 13:09:38;;;;;;;60.00;26.65;;;;;;;;;;5112616;28;20404;-61
2023/01/25 13:12:04;;;;;;;60.92;27.05;;;;;;;;;;5101169;28;20035;-61
2023/01/25 13:14:30;;;;;;;63.03;27.40;;;;;;;;;;5116139;28;20719;-58
2023/01/25 13:17:21;;;;;;;59.38;26.27;;;2.80;1.00;;;;;;5114424;27;20408;-58
2023/01/25 13:19:49;;;;;;;60.13;26.75;;;2.70;1.00;;;;;;5110781;28;20043;-59
2023/01/25 13:22:35;;;;;;;62.75;27.30;;;;;;;;;;5127019;28;20086;-58
2023/01/25 13:25:01;;;;;;;60.85;28.75;;;;;;;;;;5109728;28;20119;-60
2023/01/25 13:27:33;;;;;;;61.17;28.02;;;3.10;1.00;;;;;;5118823;27;20495;-59
2023/01/25 13:30:14;;;;;;;59.17;28.02;;;3.00;1.00;;;;;;5105831;28;20153;-60
2023/01/25 13:32:54;;;;;;;62.33;29.73;;;2.70;1.00;;;;;;5118275;28;20039;-62
2023/01/25 13:35:32;;;;;;;60.00;27.08;;;2.80;1.00;;;;;;5112479;28;20040;-60
2023/01/25 13:38:00;;;;;;;57.63;27.35;;;;;;;;;;5121256;28;20553;-59
2023/01/25 13:40:29;;;;;;;64.38;30.08;;;;;;;;;;5111541;28;20051;-61
2023/01/25 13:43:04;;;;;;;59.58;26.33;;;3.20;1.00;;;;;;5118263;28;20031;-61
2023/01/25 13:45:33;;;;;;;53.58;23.20;;;;;;;;;;5114101;27;20043;-60
2023/01/25 13:48:02;;;;;;;64.10;27.42;;;;;;;;;;5118509;28;20039;-60
2023/01/25 13:50:33;;;;;;;60.95;30.55;;;;;;;;;;5112853;28;20036;-60
2023/01/25 13:53:01;;;;;;;64.82;29.02;;;3.10;1.00;;;;;;5118133;28;20126;-61
2023/01/25 13:55:28;;;;;;;62.53;28.80;;;;;;;;;;5112003;28;20027;-60
2023/01/25 13:58:16;;;;;;;61.42;29.08;;;3.00;1.00;;;;;;5115134;28;20043;-60
2023/01/25 14:00:48;;;;;;;67.00;28.58;;;;;;;;;;5108066;28;20606;-59